createdAt,value
2022-10-13T00:27:50.187Z,14.22
2022-10-13T00:31:55.221Z,14.03
2022-10-13T00:35:54.483Z,13.86
2022-10-13T00:39:54.316Z,13.66
2022-10-13T00:44:00.631Z,13.81
2022-10-13T00:48:04.389Z,13.57
2022-10-13T00:52:05.023Z,13.47
2022-10-13T00:56:04.832Z,13.49
2022-10-13T01:00:06.730Z,13.92
2022-10-13T01:04:08.747Z,13.93
2022-10-13T01:08:10.098Z,14.09
2022-10-13T01:12:20.473Z,14.49
2022-10-13T01:16:30.979Z,14.47
2022-10-13T01:20:55.598Z,14.16
2022-10-13T01:25:04.407Z,13.76
2022-10-13T01:29:28.389Z,13.59
2022-10-13T01:33:37.997Z,13.13
2022-10-13T01:37:47.679Z,13.01
2022-10-13T01:41:50.400Z,13.23
2022-10-13T01:45:56.882Z,13.04
2022-10-13T01:50:00.411Z,13.10
2022-10-13T01:54:00.158Z,12.99
2022-10-13T01:58:00.680Z,12.85
2022-10-13T02:02:10.755Z,13.32
2022-10-13T02:06:22.857Z,13.51
2022-10-13T02:10:28.389Z,13.42
2022-10-13T02:14:32.463Z,13.08
2022-10-13T02:18:35.689Z,12.78
2022-10-13T02:22:45.664Z,12.77
2022-10-13T02:26:46.049Z,12.72
2022-10-13T02:30:48.395Z,12.81
2022-10-13T02:34:47.688Z,12.74
2022-10-13T02:38:50.319Z,12.64
2022-10-13T02:42:49.891Z,12.49
2022-10-13T02:46:50.060Z,12.57
2022-10-13T02:50:49.284Z,12.56
2022-10-13T02:54:51.471Z,13.06
2022-10-13T02:58:51.713Z,12.94
2022-10-13T03:02:51.935Z,13.23
2022-10-13T03:06:52.262Z,13.76
2022-10-13T03:10:54.276Z,13.54
2022-10-13T03:14:55.267Z,13.07
2022-10-13T03:18:55.979Z,13.15
2022-10-13T03:22:55.540Z,13.16
2022-10-13T03:26:57.946Z,12.97
2022-10-13T03:31:02.593Z,13.16
2022-10-13T03:35:03.061Z,13.34
2022-10-13T03:39:02.040Z,13.47
2022-10-13T03:43:04.250Z,13.81
2022-10-13T03:47:04.790Z,13.51
2022-10-13T03:51:09.663Z,13.53
2022-10-13T03:55:12.975Z,13.39
2022-10-13T03:59:16.804Z,13.30
2022-10-13T04:03:16.923Z,13.19
2022-10-13T04:07:16.703Z,12.31
2022-10-13T04:11:18.369Z,12.34
2022-10-13T04:15:25.086Z,12.08
2022-10-13T04:19:24.597Z,12.21
2022-10-13T04:23:25.448Z,12.33
2022-10-13T04:27:26.687Z,11.98
2022-10-13T04:31:31.328Z,11.99
2022-10-13T04:35:30.790Z,12.41
2022-10-13T04:39:31.185Z,12.42
2022-10-13T04:43:34.152Z,12.16
2022-10-13T04:47:39.568Z,12.35
2022-10-13T04:51:42.958Z,12.44
2022-10-13T04:55:47.070Z,12.45
2022-10-13T08:57:11.124Z,18.94
2022-10-13T09:01:15.965Z,19.22
2022-10-13T09:05:32.291Z,19.34
2022-10-13T09:09:35.577Z,19.53
2022-10-13T09:13:37.432Z,19.56
2022-10-13T09:17:38.253Z,19.92
2022-10-13T09:21:37.668Z,20.26
2022-10-13T09:25:42.735Z,20.42
2022-10-13T09:29:45.784Z,20.37
2022-10-13T09:33:46.229Z,20.55
2022-10-13T09:38:13.629Z,20.62
2022-10-13T09:42:26.026Z,20.58
2022-10-13T09:46:31.727Z,20.04
2022-10-13T09:50:34.627Z,20.74
2022-10-13T09:54:50.464Z,20.98
2022-10-13T09:58:58.686Z,21.23
2022-10-13T10:03:07.478Z,21.41
2022-10-13T10:07:14.580Z,21.51
2022-10-13T10:11:17.478Z,21.52
2022-10-13T10:15:23.123Z,21.35
2022-10-13T10:19:31.075Z,21.35
2022-10-13T10:23:41.390Z,21.70
2022-10-13T10:27:45.306Z,21.78
2022-10-13T10:32:04.273Z,21.66
2022-10-13T10:36:16.666Z,21.53
2022-10-13T10:40:33.288Z,21.61
2022-10-13T10:44:36.871Z,21.54
2022-10-13T10:48:40.035Z,21.44
2022-10-13T10:52:51.624Z,21.72
2022-10-13T10:56:55.808Z,21.69
2022-10-13T11:01:04.639Z,21.37
2022-10-13T11:05:12.354Z,21.63
2022-10-13T11:09:14.454Z,21.57
2022-10-13T11:13:22.646Z,21.90
2022-10-13T11:17:30.971Z,21.68
2022-10-13T11:22:13.853Z,21.69
2022-10-13T11:26:45.595Z,21.76
2022-10-13T11:30:51.640Z,21.81
2022-10-13T11:35:00.322Z,21.91
2022-10-13T11:39:11.677Z,22.31
2022-10-13T11:43:33.556Z,22.14
2022-10-13T11:48:05.084Z,22.33
2022-10-13T11:52:25.143Z,22.36
2022-10-13T11:56:39.551Z,22.68
2022-10-13T12:00:52.305Z,22.51
2022-10-13T12:05:10.236Z,22.25
2022-10-13T12:09:20.491Z,22.02
2022-10-13T12:13:22.552Z,22.32
2022-10-13T12:17:32.771Z,22.45
2022-10-13T12:21:31.770Z,22.75
2022-10-13T12:25:33.203Z,22.70
2022-10-13T12:29:37.247Z,22.91
2022-10-13T12:33:39.104Z,22.82
2022-10-13T12:37:38.794Z,22.93
2022-10-13T12:41:41.930Z,22.78
2022-10-13T12:45:42.680Z,22.59
2022-10-13T12:49:44.258Z,22.92
2022-10-13T12:53:45.286Z,22.54
2022-10-13T12:57:48.117Z,22.35
2022-10-13T13:01:53.916Z,22.22
2022-10-13T13:06:22.332Z,22.64
2022-10-13T13:10:22.495Z,22.69
2022-10-13T13:14:40.994Z,22.92
2022-10-13T13:18:41.974Z,23.02
2022-10-13T13:22:43.466Z,22.83
2022-10-13T13:26:43.296Z,22.86
2022-10-13T13:30:43.493Z,22.55
2022-10-13T13:34:42.677Z,22.48
2022-10-13T13:38:44.324Z,22.81
2022-10-13T13:42:44.019Z,22.77
2022-10-13T13:46:43.646Z,22.67
2022-10-13T13:50:43.319Z,22.46
2022-10-13T13:54:45.210Z,22.78
2022-10-13T13:58:44.818Z,22.63
2022-10-13T14:02:45.770Z,22.81
2022-10-13T14:06:45.355Z,22.75
2022-10-13T14:10:46.977Z,22.40
2022-10-13T14:14:50.147Z,22.26
2022-10-13T14:18:50.538Z,22.05
2022-10-13T14:22:50.196Z,21.98
2022-10-13T14:27:08.556Z,22.06
2022-10-13T14:31:08.209Z,21.69
2022-10-13T14:35:10.146Z,21.56
2022-10-13T14:39:09.764Z,21.44
2022-10-13T14:43:11.380Z,21.27
2022-10-13T14:47:10.893Z,21.31
2022-10-13T14:51:11.697Z,21.18
2022-10-13T14:55:12.576Z,21.25
2022-10-13T14:59:15.345Z,21.31
2022-10-13T15:03:15.357Z,21.51
2022-10-13T15:07:14.824Z,21.54
2022-10-13T15:11:14.740Z,21.52
2022-10-13T15:15:16.404Z,21.41
2022-10-13T15:19:15.850Z,21.32
2022-10-13T15:23:16.889Z,21.24
2022-10-13T15:27:16.708Z,21.10
2022-10-13T15:31:19.983Z,21.00
2022-10-13T15:35:19.412Z,20.79
2022-10-13T15:39:19.079Z,20.73
2022-10-13T15:43:19.905Z,20.53
2022-10-13T15:47:21.456Z,20.25
2022-10-13T15:51:21.975Z,20.41
2022-10-13T15:55:21.646Z,20.23
2022-10-13T15:59:21.118Z,20.20
2022-10-13T16:03:22.363Z,20.07
2022-10-13T16:07:21.888Z,19.98
2022-10-13T16:11:23.194Z,19.90
2022-10-13T16:15:22.692Z,19.68
2022-10-13T16:19:24.804Z,19.63
2022-10-13T16:23:24.363Z,19.55
2022-10-13T16:27:23.873Z,19.51
2022-10-13T16:31:38.473Z,19.46
2022-10-13T16:35:40.482Z,19.23
2022-10-13T16:39:42.707Z,18.99
2022-10-13T16:43:49.153Z,18.90
2022-10-13T16:47:57.304Z,19.01
2022-10-13T16:52:01.424Z,18.97
2022-10-13T16:56:01.485Z,18.88
2022-10-13T17:00:03.224Z,18.99
2022-10-13T17:04:08.715Z,18.92
2022-10-13T17:08:10.894Z,18.77
2022-10-13T17:12:11.035Z,18.66
2022-10-13T17:16:10.435Z,18.77
2022-10-13T17:20:14.937Z,18.74
2022-10-13T17:24:19.466Z,18.55
2022-10-13T17:28:21.622Z,18.52
2022-10-13T17:32:21.608Z,18.30
2022-10-13T17:36:26.028Z,18.35
2022-10-13T17:40:44.805Z,18.28
2022-10-13T17:44:52.378Z,18.27
2022-10-13T17:48:53.597Z,18.29
2022-10-13T17:52:52.732Z,18.41
2022-10-13T17:56:57.802Z,18.26
2022-10-13T18:01:43.189Z,18.37
2022-10-13T18:05:43.987Z,18.57
2022-10-13T18:09:44.298Z,18.42
2022-10-13T18:13:47.243Z,18.66
2022-10-13T18:17:50.036Z,18.75
2022-10-13T18:21:49.985Z,18.68
2022-10-13T18:25:49.804Z,18.70
2022-10-13T18:29:53.920Z,18.72
2022-10-13T18:33:57.156Z,18.54
2022-10-13T18:37:59.779Z,18.04
2022-10-13T18:42:02.697Z,18.04
2022-10-13T18:46:08.094Z,17.76
2022-10-13T18:50:12.275Z,17.50
2022-10-13T18:54:12.037Z,17.32
2022-10-13T18:58:11.715Z,17.07
2022-10-13T19:02:16.090Z,16.89
2022-10-13T19:06:18.824Z,16.75
2022-10-13T19:10:23.345Z,17.05
2022-10-13T19:14:22.962Z,17.05
2022-10-13T19:18:26.398Z,16.84
2022-10-13T19:22:26.754Z,16.72
2022-10-13T19:26:35.707Z,16.60
2022-10-13T19:30:35.736Z,16.33
2022-10-13T19:34:37.579Z,16.15
2022-10-13T19:38:37.771Z,16.17
2022-10-13T19:42:38.057Z,16.17
2022-10-13T19:46:38.898Z,16.27
2022-10-13T19:50:41.498Z,16.50
2022-10-13T19:54:41.461Z,16.42
2022-10-13T19:58:41.493Z,16.32
2022-10-13T20:02:43.170Z,16.27
2022-10-13T20:06:50.608Z,16.03
2022-10-13T20:10:50.212Z,16.06
2022-10-13T20:14:50.009Z,16.06
2022-10-13T20:18:55.757Z,16.01
2022-10-13T20:22:57.595Z,16.09
2022-10-13T20:26:57.287Z,15.96
2022-10-13T20:30:58.092Z,15.81
2022-10-13T20:34:57.757Z,15.66
2022-10-13T20:38:59.494Z,15.56
2022-10-13T20:42:59.318Z,15.36
2022-10-13T20:46:58.890Z,15.37
2022-10-13T20:51:01.993Z,15.40
2022-10-13T20:55:03.831Z,15.43
2022-10-13T20:59:08.840Z,15.43
2022-10-13T21:03:08.830Z,15.40
2022-10-13T21:07:08.445Z,15.26
2022-10-13T21:11:11.933Z,15.29
2022-10-13T21:15:12.217Z,15.58
2022-10-13T21:19:11.954Z,15.78
2022-10-13T21:23:13.083Z,16.12
2022-10-13T21:27:14.737Z,15.83
2022-10-13T21:31:15.969Z,15.59
2022-10-13T21:35:15.527Z,15.87
2022-10-13T21:39:15.447Z,15.72
2022-10-13T21:43:17.216Z,15.51
2022-10-13T21:47:16.838Z,15.14
2022-10-13T21:51:18.494Z,14.91
2022-10-13T21:55:22.707Z,14.98
2022-10-13T21:59:27.615Z,15.27
2022-10-13T22:03:26.726Z,15.01
2022-10-13T22:07:26.347Z,14.79
2022-10-13T22:11:27.772Z,14.66
2022-10-13T22:15:29.521Z,14.59
2022-10-13T22:19:30.263Z,14.41
2022-10-13T22:23:29.541Z,13.97
2022-10-13T22:27:29.121Z,13.70
2022-10-13T22:31:32.354Z,13.53
2022-10-13T22:35:37.063Z,13.43
2022-10-13T22:39:36.931Z,13.37
2022-10-13T22:43:41.580Z,13.33
2022-10-13T22:47:45.451Z,13.35
2022-10-13T22:51:44.888Z,13.22
2022-10-13T22:55:44.522Z,13.31
2022-10-13T22:59:43.956Z,13.42
2022-10-13T23:03:48.476Z,13.36
2022-10-13T23:07:48.098Z,13.47
2022-10-13T23:11:47.755Z,13.46
2022-10-13T23:15:52.084Z,13.41
2022-10-13T23:19:58.695Z,13.08
2022-10-13T23:24:00.391Z,13.33
2022-10-13T23:28:00.305Z,13.24
2022-10-13T23:31:59.855Z,13.14
2022-10-13T23:36:02.451Z,13.07
2022-10-13T23:40:02.019Z,13.07
2022-10-13T23:44:01.917Z,13.04
2022-10-13T23:48:01.476Z,12.96
2022-10-13T23:52:10.664Z,12.84
2022-10-13T23:56:11.391Z,12.81
